Time,TemperatureF,DewpointF,PressureIn,WindDirection,WindDirectionDegrees,WindSpeedMPH,WindSpeedGustMPH,Humidity,HourlyPrecipIn,Conditions,Clouds,dailyrainin,SoftwareType,DateUTC
2013-03-27 00:02:00,72.5,70.0,29.99,SSW,202,0.0,0.0,92,0.00,CLR,,0.00,WeatherDisplay:10.37,2013-03-27 10:02:00,
2013-03-27 00:07:00,72.5,70.0,29.99,ESE,112,0.0,0.0,92,0.00,CLR,,0.00,WeatherDisplay:10.37,2013-03-27 10:07:00,
2013-03-27 00:12:00,72.3,69.8,29.99,SE,135,0.0,0.0,92,0.00,CLR,,0.00,WeatherDisplay:10.37,2013-03-27 10:12:00,
2013-03-27 00:17:00,72.5,70.0,29.99,South,180,0.0,0.0,92,0.00,CLR,,0.00,WeatherDisplay:10.37,2013-03-27 10:17:00,
2013-03-27 00:22:00,72.5,70.0,29.99,SW,225,2.4,2.4,92,0.00,CLR,,0.00,WeatherDisplay:10.37,2013-03-27 10:22:00,
2013-03-27 00:27:00,72.3,69.8,29.98,SW,225,2.0,2.3,92,0.00,CLR,,0.00,WeatherDisplay:10.37,2013-03-27 10:27:00,
2013-03-27 00:32:00,72.3,69.8,29.98,SW,225,0.0,1.1,92,0.00,CLR,,0.00,WeatherDisplay:10.37,2013-03-27 10:32:00,
2013-03-27 00:37:00,72.3,69.8,29.98,SW,225,2.0,2.3,92,0.00,CLR,,0.00,WeatherDisplay:10.37,2013-03-27 10:37:00,
2013-03-27 00:42:00,72.1,70.0,29.98,SW,225,1.5,1.5,93,0.00,CLR,,0.00,WeatherDisplay:10.37,2013-03-27 10:42:00,
2013-03-27 00:47:00,72.1,70.0,29.98,SW,225,0.0,0.0,93,0.00,CLR,,0.00,WeatherDisplay:10.37,2013-03-27 10:47:00,
2013-03-27 00:52:00,72.1,70.0,29.98,SW,225,0.0,0.0,93,0.00,CLR,,0.00,WeatherDisplay:10.37,2013-03-27 10:52:00,
2013-03-27 00:57:00,72.1,70.0,29.98,SW,225,2.2,2.3,93,0.00,CLR,,0.00,WeatherDisplay:10.37,2013-03-27 10:57:00,
2013-03-27 01:03:00,72.0,69.9,29.98,SW,225,1.7,2.3,93,0.00,CLR,,0.00,WeatherDisplay:10.37,2013-03-27 11:03:00,
2013-03-27 01:08:00,71.8,69.7,29.98,SW,225,1.7,2.3,93,0.00,CLR,,0.00,WeatherDisplay:10.37,2013-03-27 11:08:00,
2013-03-27 01:13:00,71.8,69.7,29.97,SW,225,1.8,2.3,93,0.00,CLR,,0.00,WeatherDisplay:10.37,2013-03-27 11:13:00,
2013-03-27 01:18:00,71.6,69.5,29.97,SW,225,0.0,0.0,93,0.00,CLR,,0.00,WeatherDisplay:10.37,2013-03-27 11:18:00,
2013-03-27 01:23:00,71.4,69.3,29.97,SW,225,0.0,0.0,93,0.00,CLR,,0.00,WeatherDisplay:10.37,2013-03-27 11:23:00,
2013-03-27 01:28:00,71.2,69.1,29.97,SW,225,0.0,0.0,93,0.00,CLR,,0.00,WeatherDisplay:10.37,2013-03-27 11:28:00,
2013-03-27 01:33:00,71.2,69.4,29.97,SW,225,0.0,0.0,94,0.00,CLR,,0.00,WeatherDisplay:10.37,2013-03-27 11:33:00,
2013-03-27 01:38:00,71.6,69.8,29.97,SW,225,0.0,0.0,94,0.00,CLR,,0.00,WeatherDisplay:10.37,2013-03-27 11:38:00,
2013-03-27 01:43:00,71.6,69.8,29.97,SW,225,0.0,0.0,94,0.00,CLR,,0.00,WeatherDisplay:10.37,2013-03-27 11:43:00,
2013-03-27 01:48:00,71.4,69.6,29.96,SW,225,2.2,2.7,94,0.00,CLR,,0.00,WeatherDisplay:10.37,2013-03-27 11:48:00,
2013-03-27 01:53:00,71.4,69.6,29.96,SW,225,1.7,2.3,94,0.00,CLR,,0.00,WeatherDisplay:10.37,2013-03-27 11:53:00,
2013-03-27 01:58:00,71.4,69.6,29.96,SW,225,1.6,1.7,94,0.00,CLR,,0.00,WeatherDisplay:10.37,2013-03-27 11:58:00,
2013-03-27 02:03:00,71.4,69.6,29.95,SW,225,2.1,2.7,94,0.00,CLR,,0.00,WeatherDisplay:10.37,2013-03-27 12:03:00,
2013-03-27 02:08:00,71.4,69.6,29.95,SW,225,0.0,0.0,94,0.00,CLR,,0.00,WeatherDisplay:10.37,2013-03-27 12:08:00,
2013-03-27 02:13:00,71.2,69.4,29.95,SW,225,1.9,2.3,94,0.00,CLR,,0.00,WeatherDisplay:10.37,2013-03-27 12:13:00,
2013-03-27 02:18:00,71.2,69.4,29.95,SW,225,1.7,2.3,94,0.00,CLR,,0.00,WeatherDisplay:10.37,2013-03-27 12:18:00,
2013-03-27 02:23:00,71.2,69.4,29.94,SW,225,0.0,0.0,94,0.00,CLR,,0.00,WeatherDisplay:10.37,2013-03-27 12:23:00,
2013-03-27 02:28:00,71.2,69.4,29.94,SW,225,2.3,2.3,94,0.00,CLR,,0.00,WeatherDisplay:10.37,2013-03-27 12:28:00,
2013-03-27 02:33:00,71.2,69.4,29.95,SW,225,1.0,2.3,94,0.00,CLR,,0.00,WeatherDisplay:10.37,2013-03-27 12:33:00,
2013-03-27 02:39:00,71.4,69.9,29.95,SW,225,0.0,0.0,95,0.00,CLR,,0.00,WeatherDisplay:10.37,2013-03-27 12:39:00,
2013-03-27 02:44:00,71.6,70.1,29.95,SW,225,1.6,1.6,95,0.00,CLR,,0.00,WeatherDisplay:10.37,2013-03-27 12:44:00,
2013-03-27 02:49:00,71.4,69.9,29.94,SW,225,0.0,0.0,95,0.00,CLR,,0.00,WeatherDisplay:10.37,2013-03-27 12:49:00,
2013-03-27 02:54:00,71.6,70.1,29.94,SW,225,0.0,0.0,95,0.00,CLR,,0.00,WeatherDisplay:10.37,2013-03-27 12:54:00,
2013-03-27 02:59:00,71.6,70.1,29.93,SW,225,1.9,2.3,95,0.00,CLR,,0.00,WeatherDisplay:10.37,2013-03-27 12:59:00,
2013-03-27 03:04:00,71.6,70.1,29.93,SW,225,2.2,2.3,95,0.00,CLR,,0.00,WeatherDisplay:10.37,2013-03-27 13:04:00,
2013-03-27 03:09:00,71.8,70.3,29.93,SW,225,2.0,2.3,95,0.00,CLR,,0.00,WeatherDisplay:10.37,2013-03-27 13:09:00,
2013-03-27 03:14:00,71.8,70.3,29.93,SW,225,2.2,2.3,95,0.00,CLR,,0.00,WeatherDisplay:10.37,2013-03-27 13:14:00,
2013-03-27 03:19:00,71.8,70.3,29.93,SSW,202,2.1,2.7,95,0.00,CLR,,0.00,WeatherDisplay:10.37,2013-03-27 13:19:00,
2013-03-27 03:24:00,71.8,70.3,29.93,SSW,202,1.9,2.3,95,0.00,CLR,,0.00,WeatherDisplay:10.37,2013-03-27 13:24:00,
2013-03-27 03:29:00,72.0,70.5,29.93,SSW,202,1.7,2.3,95,0.00,CLR,,0.00,WeatherDisplay:10.37,2013-03-27 13:29:00,
2013-03-27 03:34:00,72.1,70.6,29.93,ESE,112,0.0,0.0,95,0.00,CLR,,0.00,WeatherDisplay:10.37,2013-03-27 13:34:00,
2013-03-27 03:39:00,72.1,70.6,29.93,SSW,202,0.0,1.1,95,0.00,CLR,,0.00,WeatherDisplay:10.37,2013-03-27 13:39:00,
2013-03-27 03:44:00,72.1,70.6,29.93,South,180,2.0,2.3,95,0.00,CLR,,0.00,WeatherDisplay:10.37,2013-03-27 13:44:00,
2013-03-27 03:49:00,72.1,70.6,29.92,SW,225,2.7,3.2,95,0.00,CLR,,0.00,WeatherDisplay:10.37,2013-03-27 13:49:00,
2013-03-27 03:54:00,72.1,70.6,29.92,SSW,202,2.1,2.3,95,0.00,CLR,,0.00,WeatherDisplay:10.37,2013-03-27 13:54:00,
2013-03-27 04:00:00,72.1,70.6,29.92,SSW,206,1.0,3.0,95,0.00,CLR,,0.00,WeatherDisplay:10.37,2013-03-27 14:00:00,
2013-03-27 04:05:00,72.1,70.6,29.92,SW,226,1.0,2.0,95,0.00,CLR,,0.00,WeatherDisplay:10.37,2013-03-27 14:05:00,
2013-03-27 04:10:00,72.1,70.6,29.92,West,271,0.0,0.0,95,0.00,CLR,,0.00,WeatherDisplay:10.37,2013-03-27 14:10:00,
2013-03-27 04:15:00,72.1,70.6,29.92,West,270,0.0,0.0,95,0.00,CLR,,0.00,WeatherDisplay:10.37,2013-03-27 14:15:00,
2013-03-27 04:20:00,72.1,70.6,29.92,West,270,0.0,0.0,95,0.00,CLR,,0.00,WeatherDisplay:10.37,2013-03-27 14:20:00,
2013-03-27 04:25:00,72.3,70.8,29.93,West,270,1.0,2.0,95,0.00,CLR,,0.00,WeatherDisplay:10.37,2013-03-27 14:25:00,
2013-03-27 04:30:00,72.3,70.8,29.93,West,270,0.0,2.0,95,0.00,CLR,,0.00,WeatherDisplay:10.37,2013-03-27 14:30:00,
2013-03-27 04:35:00,72.4,70.9,29.93,West,270,0.0,0.0,95,0.00,CLR,,0.00,WeatherDisplay:10.37,2013-03-27 14:35:00,
2013-03-27 04:40:00,72.5,71.0,29.92,West,270,0.0,0.0,95,0.00,CLR,,0.00,WeatherDisplay:10.37,2013-03-27 14:40:00,
2013-03-27 04:45:00,72.5,71.0,29.92,SW,228,2.0,2.0,95,0.00,CLR,,0.00,WeatherDisplay:10.37,2013-03-27 14:45:00,
2013-03-27 04:50:00,72.5,71.0,29.92,SSW,204,2.0,2.0,95,0.00,CLR,,0.00,WeatherDisplay:10.37,2013-03-27 14:50:00,
2013-03-27 04:55:00,72.5,71.0,29.92,SSW,193,2.0,2.0,95,0.00,CLR,,0.00,WeatherDisplay:10.37,2013-03-27 14:55:00,
2013-03-27 05:00:00,72.5,71.0,29.93,South,191,2.0,3.0,95,0.00,CLR,,0.00,WeatherDisplay:10.37,2013-03-27 15:00:00,
2013-03-27 05:05:00,72.5,71.0,29.93,SSW,199,0.0,2.0,95,0.00,CLR,,0.00,WeatherDisplay:10.37,2013-03-27 15:05:00,
2013-03-27 05:10:00,72.5,71.0,29.93,SSW,198,2.0,2.0,95,0.00,CLR,,0.00,WeatherDisplay:10.37,2013-03-27 15:10:00,
2013-03-27 05:15:00,72.5,71.0,29.93,South,187,2.0,2.0,95,0.00,CLR,,0.00,WeatherDisplay:10.37,2013-03-27 15:15:00,
2013-03-27 05:20:00,72.5,71.0,29.93,SSW,206,1.0,3.0,95,0.00,CLR,,0.00,WeatherDisplay:10.37,2013-03-27 15:20:00,
2013-03-27 05:25:00,72.5,71.0,29.93,SW,216,0.0,2.0,95,0.00,CLR,,0.00,WeatherDisplay:10.37,2013-03-27 15:25:00,
2013-03-27 05:30:00,72.5,71.0,29.93,SSW,209,1.0,2.0,95,0.00,CLR,,0.00,WeatherDisplay:10.37,2013-03-27 15:30:00,
2013-03-27 05:35:00,72.5,71.0,29.93,South,180,0.1,1.1,95,0.00,CLR,,0.00,WeatherDisplay:10.37,2013-03-27 15:35:00,
2013-03-27 05:40:00,72.5,71.0,29.93,South,187,0.0,0.0,95,0.00,CLR,,0.00,WeatherDisplay:10.37,2013-03-27 15:40:00,
2013-03-27 05:45:00,72.5,71.0,29.93,SW,225,1.7,1.7,95,0.00,CLR,,0.00,WeatherDisplay:10.37,2013-03-27 15:45:00,
2013-03-27 05:50:00,72.5,71.0,29.94,South,180,1.7,2.3,95,0.00,CLR,,0.00,WeatherDisplay:10.37,2013-03-27 15:50:00,
2013-03-27 05:55:00,72.5,71.0,29.94,South,180,2.0,2.3,95,0.00,CLR,,0.00,WeatherDisplay:10.37,2013-03-27 15:55:00,
2013-03-27 06:00:00,72.5,71.0,29.93,South,180,1.7,1.7,95,0.00,CLR,,0.00,WeatherDisplay:10.37,2013-03-27 16:00:00,
2013-03-27 06:05:00,72.5,71.0,29.93,SW,225,1.0,2.2,95,0.00,CLR,,0.00,WeatherDisplay:10.37,2013-03-27 16:05:00,
2013-03-27 06:10:00,72.5,71.0,29.93,SSW,202,1.6,1.6,95,0.00,CLR,,0.00,WeatherDisplay:10.37,2013-03-27 16:10:00,
2013-03-27 06:15:00,72.5,71.0,29.94,South,180,1.8,2.3,95,0.00,CLR,,0.00,WeatherDisplay:10.37,2013-03-27 16:15:00,
2013-03-27 06:20:00,72.5,71.0,29.94,South,180,2.0,2.3,95,0.00,CLR,,0.00,WeatherDisplay:10.37,2013-03-27 16:20:00,
2013-03-27 06:25:00,72.5,71.0,29.94,South,180,2.3,2.3,95,0.00,CLR,,0.00,WeatherDisplay:10.37,2013-03-27 16:25:00,
2013-03-27 06:30:00,72.5,71.0,29.94,South,180,1.0,2.3,95,0.00,CLR,,0.00,WeatherDisplay:10.37,2013-03-27 16:30:00,
2013-03-27 06:35:00,72.5,71.0,29.94,SSE,158,0.0,0.0,95,0.00,CLR,,0.00,WeatherDisplay:10.37,2013-03-27 16:35:00,
2013-03-27 06:40:00,72.5,71.0,29.94,ESE,112,0.0,0.0,95,0.00,CLR,,0.00,WeatherDisplay:10.37,2013-03-27 16:40:00,
2013-03-27 06:45:00,72.7,71.2,29.94,South,180,0.0,0.0,95,0.00,CLR,,0.00,WeatherDisplay:10.37,2013-03-27 16:45:00,
2013-03-27 06:50:00,72.7,71.2,29.95,WSW,248,0.0,0.0,95,0.00,CLR,,0.00,WeatherDisplay:10.37,2013-03-27 16:50:00,
2013-03-27 06:56:00,72.9,71.4,29.95,NW,315,1.4,3.2,95,0.00,CLR,,0.00,WeatherDisplay:10.37,2013-03-27 16:56:00,
2013-03-27 07:01:00,72.9,71.4,29.95,NNE,22,4.2,4.6,95,0.00,CLR,,0.00,WeatherDisplay:10.37,2013-03-27 17:01:00,
2013-03-27 07:06:00,73.2,71.4,29.95,East,90,3.6,4.6,94,0.00,CLR,,0.00,WeatherDisplay:10.37,2013-03-27 17:06:00,
2013-03-27 07:11:00,73.4,71.6,29.95,ENE,68,3.6,4.6,94,0.00,CLR,,0.00,WeatherDisplay:10.37,2013-03-27 17:11:00,
2013-03-27 07:16:00,73.6,71.8,29.95,East,90,5.3,6.8,94,0.00,CLR,,0.00,WeatherDisplay:10.37,2013-03-27 17:16:00,
2013-03-27 07:21:00,73.8,72.0,29.95,East,90,3.4,8.1,94,0.00,CLR,,0.00,WeatherDisplay:10.37,2013-03-27 17:21:00,
2013-03-27 07:27:00,73.6,71.4,29.95,NNE,22,5.2,6.8,93,0.00,CLR,,0.00,WeatherDisplay:10.37,2013-03-27 17:27:00,
2013-03-27 07:32:00,73.4,70.9,29.95,North,360,5.1,8.1,92,0.00,CLR,,0.00,WeatherDisplay:10.37,2013-03-27 17:32:00,
2013-03-27 07:37:00,73.4,70.9,29.96,NE,45,4.6,5.8,92,0.00,CLR,,0.00,WeatherDisplay:10.37,2013-03-27 17:37:00,
2013-03-27 07:42:00,73.4,70.9,29.96,ENE,68,6.2,8.1,92,0.00,CLR,,0.00,WeatherDisplay:10.37,2013-03-27 17:42:00,
2013-03-27 07:47:00,73.4,70.9,29.97,NNE,22,6.2,9.2,92,0.00,CLR,,0.00,WeatherDisplay:10.37,2013-03-27 17:47:00,
2013-03-27 07:52:00,73.2,70.4,29.97,ESE,112,5.1,5.8,91,0.00,CLR,,0.00,WeatherDisplay:10.37,2013-03-27 17:52:00,
2013-03-27 07:57:00,73.0,69.9,29.97,NNE,22,5.9,6.9,90,0.00,CLR,,0.00,WeatherDisplay:10.37,2013-03-27 17:57:00,
2013-03-27 08:02:00,73.2,70.1,29.97,West,270,2.3,3.2,90,0.00,CLR,,0.00,WeatherDisplay:10.37,2013-03-27 18:02:00,
2013-03-27 08:07:00,73.2,69.8,29.97,North,360,4.9,6.9,89,0.00,CLR,,0.00,WeatherDisplay:10.37,2013-03-27 18:07:00,
2013-03-27 08:12:00,73.4,70.0,29.98,North,360,3.8,4.7,89,0.00,CLR,,0.00,WeatherDisplay:10.37,2013-03-27 18:12:00,
2013-03-27 08:18:00,73.6,69.8,29.98,NE,45,4.1,4.7,88,0.00,CLR,,0.00,WeatherDisplay:10.37,2013-03-27 18:18:00,
2013-03-27 08:23:00,73.9,70.1,29.98,NNW,338,4.7,5.8,88,0.00,CLR,,0.00,WeatherDisplay:10.37,2013-03-27 18:23:00,
2013-03-27 08:28:00,74.8,70.7,29.98,NNE,22,8.8,9.2,87,0.00,CLR,,0.00,WeatherDisplay:10.37,2013-03-27 18:28:00,
2013-03-27 08:33:00,74.1,69.6,29.98,North,360,7.0,9.2,86,0.00,CLR,,0.00,WeatherDisplay:10.37,2013-03-27 18:33:00,
2013-03-27 08:38:00,73.9,69.8,29.98,West,270,8.1,10.4,87,0.00,CLR,,0.00,WeatherDisplay:10.37,2013-03-27 18:38:00,
2013-03-27 08:43:00,73.6,69.5,29.98,NNE,22,5.9,6.9,87,0.00,CLR,,0.00,WeatherDisplay:10.37,2013-03-27 18:43:00,
2013-03-27 08:48:00,73.6,69.5,29.99,NE,45,6.8,6.9,87,0.00,CLR,,0.00,WeatherDisplay:10.37,2013-03-27 18:48:00,
2013-03-27 08:53:00,74.5,71.7,29.99,North,360,4.8,6.9,91,0.00,CLR,,0.00,WeatherDisplay:10.37,2013-03-27 18:53:00,
2013-03-27 08:58:00,74.5,71.7,29.99,NNW,338,7.0,9.2,91,0.00,CLR,,0.00,WeatherDisplay:10.37,2013-03-27 18:58:00,
2013-03-27 09:03:00,74.5,71.7,29.98,NNE,22,8.6,10.4,91,0.00,CLR,,0.00,WeatherDisplay:10.37,2013-03-27 19:03:00,
2013-03-27 09:08:00,74.1,71.3,29.98,NNW,338,4.3,6.3,91,0.00,CLR,,0.00,WeatherDisplay:10.37,2013-03-27 19:08:00,
2013-03-27 09:13:00,74.1,71.3,29.99,NE,45,5.0,5.8,91,0.00,CLR,,0.00,WeatherDisplay:10.37,2013-03-27 19:13:00,
2013-03-27 09:18:00,74.3,71.8,29.99,WNW,292,6.4,7.3,92,0.00,CLR,,0.00,WeatherDisplay:10.37,2013-03-27 19:18:00,
2013-03-27 09:23:00,74.3,71.5,29.99,NNE,22,5.6,5.8,91,0.00,CLR,,0.00,WeatherDisplay:10.37,2013-03-27 19:23:00,
2013-03-27 09:29:00,74.8,71.3,29.99,NW,315,4.9,6.9,89,0.00,CLR,,0.00,WeatherDisplay:10.37,2013-03-27 19:29:00,
2013-03-27 09:34:00,74.3,70.2,29.99,NNW,338,4.1,5.8,87,0.00,CLR,,0.00,WeatherDisplay:10.37,2013-03-27 19:34:00,
2013-03-27 09:39:00,74.7,70.2,29.99,NE,45,3.1,3.5,86,0.00,CLR,,0.00,WeatherDisplay:10.37,2013-03-27 19:39:00,
2013-03-27 09:44:00,74.7,70.6,29.99,ESE,112,3.7,4.6,87,0.00,CLR,,0.00,WeatherDisplay:10.37,2013-03-27 19:44:00,
2013-03-27 09:49:00,75.4,71.3,29.99,ENE,68,4.1,4.6,87,0.00,CLR,,0.00,WeatherDisplay:10.37,2013-03-27 19:49:00,
2013-03-27 09:54:00,75.6,70.8,29.99,East,90,4.7,6.9,85,0.00,CLR,,0.00,WeatherDisplay:10.37,2013-03-27 19:54:00,
2013-03-27 09:59:00,74.8,69.6,29.99,ENE,68,3.7,4.7,84,0.00,CLR,,0.00,WeatherDisplay:10.37,2013-03-27 19:59:00,
2013-03-27 10:04:00,75.4,70.6,29.99,NE,45,6.5,6.9,85,0.00,CLR,,0.00,WeatherDisplay:10.37,2013-03-27 20:04:00,
2013-03-27 10:09:00,75.0,70.2,29.99,WNW,292,5.6,6.9,85,0.00,CLR,,0.00,WeatherDisplay:10.37,2013-03-27 20:09:00,
2013-03-27 10:14:00,75.2,70.7,29.99,West,270,1.5,3.5,86,0.00,CLR,,0.00,WeatherDisplay:10.37,2013-03-27 20:14:00,
2013-03-27 10:19:00,75.0,70.2,29.99,ENE,68,5.3,6.9,85,0.00,CLR,,0.00,WeatherDisplay:10.37,2013-03-27 20:19:00,
2013-03-27 10:24:00,74.7,69.9,29.99,NE,45,7.2,10.4,85,0.00,CLR,,0.00,WeatherDisplay:10.37,2013-03-27 20:24:00,
2013-03-27 10:29:00,74.1,69.3,29.99,ESE,112,7.1,8.1,85,0.01,RA,,0.01,WeatherDisplay:10.37,2013-03-27 20:29:00,
2013-03-27 10:34:00,74.3,69.8,29.99,ENE,68,6.4,9.9,86,0.01,RA,,0.01,WeatherDisplay:10.37,2013-03-27 20:34:00,
2013-03-27 10:39:00,74.3,69.8,29.99,ESE,112,7.7,10.4,86,0.01,CLR,,0.01,WeatherDisplay:10.37,2013-03-27 20:39:00,
2013-03-27 10:45:00,74.1,69.6,29.99,East,85,8.0,13.0,86,0.00,CLR,,0.01,WeatherDisplay:10.37,2013-03-27 20:45:00,
2013-03-27 10:50:00,74.1,69.6,29.99,NE,45,6.7,9.2,86,0.01,CLR,,0.01,WeatherDisplay:10.37,2013-03-27 20:50:00,
2013-03-27 10:55:00,73.7,69.2,29.99,NE,46,9.0,12.0,86,0.00,CLR,,0.01,WeatherDisplay:10.37,2013-03-27 20:55:00,
2013-03-27 11:00:00,73.8,69.3,29.99,NNE,32,9.0,13.0,86,0.00,CLR,,0.01,WeatherDisplay:10.37,2013-03-27 21:00:00,
2013-03-27 11:05:00,74.0,69.9,29.99,NNE,17,12.0,14.0,87,0.00,CLR,,0.01,WeatherDisplay:10.37,2013-03-27 21:05:00,
2013-03-27 11:10:00,74.2,70.4,29.99,NNE,23,8.0,13.0,88,0.00,CLR,,0.01,WeatherDisplay:10.37,2013-03-27 21:10:00,
2013-03-27 11:15:00,73.4,70.0,29.99,NNE,19,10.0,13.0,89,0.00,CLR,,0.01,WeatherDisplay:10.37,2013-03-27 21:15:00,
2013-03-27 11:20:00,73.2,70.1,29.99,NNE,27,8.0,13.0,90,0.00,CLR,,0.01,WeatherDisplay:10.37,2013-03-27 21:20:00,
2013-03-27 11:25:00,73.2,70.1,29.99,ENE,61,8.0,8.0,90,0.00,CLR,,0.01,WeatherDisplay:10.37,2013-03-27 21:25:00,
2013-03-27 11:30:00,74.7,71.6,29.99,NE,44,6.0,12.0,90,0.00,CLR,,0.01,WeatherDisplay:10.37,2013-03-27 21:30:00,
2013-03-27 11:35:00,73.4,70.3,29.99,NE,36,9.0,13.0,90,0.00,CLR,,0.01,WeatherDisplay:10.37,2013-03-27 21:35:00,
2013-03-27 11:40:00,73.4,70.3,29.99,NE,48,9.0,11.0,90,0.00,RA,,0.02,WeatherDisplay:10.37,2013-03-27 21:40:00,
2013-03-27 11:45:00,73.4,70.9,29.99,NNW,338,8.0,12.7,92,0.04,RA,,0.05,WeatherDisplay:10.37,2013-03-27 21:45:00,
2013-03-27 11:50:00,73.2,71.1,29.99,NE,34,10.0,16.0,93,0.00,RA,,0.06,WeatherDisplay:10.37,2013-03-27 21:50:00,
2013-03-27 11:55:00,73.6,71.8,29.99,NE,40,8.0,10.0,94,0.00,,,0.06,WeatherDisplay:10.37,2013-03-27 21:55:00,
2013-03-27 12:00:00,73.8,72.0,30.00,NNE,14,8.0,10.0,94,0.01,RA,,0.07,WeatherDisplay:10.37,2013-03-27 22:00:00,
2013-03-27 12:05:00,73.6,71.8,30.00,WNW,292,10.1,12.7,94,0.06,RA,,0.07,WeatherDisplay:10.37,2013-03-27 22:05:00,
2013-03-27 12:10:00,74.0,72.1,30.00,North,359,7.0,10.0,94,0.00,,,0.07,WeatherDisplay:10.37,2013-03-27 22:10:00,
2013-03-27 12:15:00,74.1,72.3,29.99,NNW,338,8.7,8.7,94,0.06,CLR,,0.07,WeatherDisplay:10.37,2013-03-27 22:15:00,
2013-03-27 12:20:00,74.0,71.8,29.99,NNE,14,7.0,12.0,93,0.00,CLR,,0.07,WeatherDisplay:10.37,2013-03-27 22:20:00,
2013-03-27 12:25:00,74.6,72.5,29.98,NNE,26,7.0,9.0,93,0.00,CLR,,0.07,WeatherDisplay:10.37,2013-03-27 22:25:00,
2013-03-27 12:30:00,74.7,72.5,29.98,NNE,23,9.0,10.0,93,0.00,CLR,,0.07,WeatherDisplay:10.37,2013-03-27 22:30:00,
2013-03-27 12:35:00,74.9,72.8,29.98,NNE,30,8.0,10.0,93,0.00,CLR,,0.07,WeatherDisplay:10.37,2013-03-27 22:35:00,
2013-03-27 12:40:00,74.0,71.6,29.97,North,353,12.0,14.0,92,0.00,CLR,,0.07,WeatherDisplay:10.37,2013-03-27 22:40:00,
2013-03-27 12:45:00,74.9,73.0,29.97,NNE,22,5.0,9.0,94,0.00,CLR,,0.07,WeatherDisplay:10.37,2013-03-27 22:45:00,
2013-03-27 12:50:00,74.0,71.8,29.97,ENE,78,10.0,13.0,93,0.00,CLR,,0.07,WeatherDisplay:10.37,2013-03-27 22:50:00,
2013-03-27 12:55:00,74.1,71.9,29.97,NNE,23,7.0,9.0,93,0.00,CLR,,0.07,WeatherDisplay:10.37,2013-03-27 22:55:00,
2013-03-27 13:00:00,73.7,71.5,29.97,North,11,8.0,11.0,93,0.00,CLR,,0.07,WeatherDisplay:10.37,2013-03-27 23:00:00,
2013-03-27 13:05:00,73.9,71.7,29.97,NNE,29,6.0,11.0,93,0.00,CLR,,0.07,WeatherDisplay:10.37,2013-03-27 23:05:00,
2013-03-27 13:10:00,73.7,71.8,29.97,NNE,31,7.0,13.0,94,0.00,CLR,,0.07,WeatherDisplay:10.37,2013-03-27 23:10:00,
2013-03-27 13:15:00,73.4,71.6,29.97,NNE,21,7.0,12.0,94,0.00,CLR,,0.07,WeatherDisplay:10.37,2013-03-27 23:15:00,
2013-03-27 13:20:00,73.4,71.6,29.97,NW,315,8.0,10.9,94,0.01,RA,,0.08,WeatherDisplay:10.37,2013-03-27 23:20:00,
2013-03-27 13:25:00,73.3,71.4,29.96,NNE,26,7.0,11.0,94,0.00,RA,,0.08,WeatherDisplay:10.37,2013-03-27 23:25:00,
2013-03-27 13:30:00,73.6,71.8,29.96,NE,45,5.8,9.2,94,0.01,CLR,,0.08,WeatherDisplay:10.37,2013-03-27 23:30:00,
2013-03-27 13:35:00,72.9,71.1,29.96,NNE,22,8.0,11.0,94,0.00,CLR,,0.08,WeatherDisplay:10.37,2013-03-27 23:35:00,
2013-03-27 13:40:00,72.9,71.1,29.96,NNE,17,7.0,9.0,94,0.00,CLR,,0.08,WeatherDisplay:10.37,2013-03-27 23:40:00,
2013-03-27 13:45:00,73.0,71.2,29.96,NNE,31,7.0,10.0,94,0.00,CLR,,0.08,WeatherDisplay:10.37,2013-03-27 23:45:00,
2013-03-27 13:50:00,72.8,71.0,29.96,North,350,7.0,12.0,94,0.00,CLR,,0.08,WeatherDisplay:10.37,2013-03-27 23:50:00,
2013-03-27 13:55:00,72.8,70.9,29.96,North,6,8.0,10.0,94,0.00,RA,,0.09,WeatherDisplay:10.37,2013-03-27 23:55:00,
2013-03-27 14:00:00,72.7,70.9,29.96,NNE,28,7.0,10.0,94,0.00,RA,,0.09,WeatherDisplay:10.37,2013-03-28 00:00:00,
2013-03-27 14:05:00,72.6,70.7,29.96,NNE,30,8.0,10.0,94,0.00,CLR,,0.09,WeatherDisplay:10.37,2013-03-28 00:05:00,
2013-03-27 14:10:00,73.0,71.1,29.96,NNW,343,6.0,12.0,94,0.00,CLR,,0.09,WeatherDisplay:10.37,2013-03-28 00:10:00,
2013-03-27 14:15:00,72.7,70.9,29.95,North,6,7.0,10.0,94,0.00,CLR,,0.09,WeatherDisplay:10.37,2013-03-28 00:15:00,
2013-03-27 14:20:00,73.0,71.2,29.95,ENE,57,6.0,9.0,94,0.00,CLR,,0.09,WeatherDisplay:10.37,2013-03-28 00:20:00,
2013-03-27 14:25:00,72.7,70.9,29.95,ENE,66,8.0,10.0,94,0.00,CLR,,0.09,WeatherDisplay:10.37,2013-03-28 00:25:00,
2013-03-27 14:30:00,72.5,70.7,29.95,NE,36,8.0,10.0,94,0.00,CLR,,0.09,WeatherDisplay:10.37,2013-03-28 00:30:00,
2013-03-27 14:35:00,72.7,70.9,29.95,NNW,338,6.9,6.9,94,0.01,CLR,,0.09,WeatherDisplay:10.37,2013-03-28 00:35:00,
2013-03-27 14:40:00,72.4,70.6,29.95,NNE,21,7.0,10.0,94,0.00,CLR,,0.09,WeatherDisplay:10.37,2013-03-28 00:40:00,
2013-03-27 14:45:00,72.5,70.4,29.95,NE,45,8.2,9.9,93,0.01,CLR,,0.09,WeatherDisplay:10.37,2013-03-28 00:45:00,
2013-03-27 14:50:00,72.3,70.2,29.94,NE,54,7.0,12.0,93,0.00,CLR,,0.09,WeatherDisplay:10.37,2013-03-28 00:50:00,
2013-03-27 14:55:00,71.4,68.6,29.94,NE,38,8.0,12.0,91,0.00,CLR,,0.09,WeatherDisplay:10.37,2013-03-28 00:55:00,
2013-03-27 15:00:00,71.2,68.1,29.95,NNE,17,8.0,12.0,90,0.00,CLR,,0.09,WeatherDisplay:10.37,2013-03-28 01:00:00,
2013-03-27 15:05:00,71.8,68.7,29.95,NNE,18,8.0,10.0,90,0.00,CLR,,0.09,WeatherDisplay:10.37,2013-03-28 01:05:00,
2013-03-27 15:10:00,71.6,68.2,29.95,NNE,23,8.0,10.0,89,0.00,CLR,,0.09,WeatherDisplay:10.37,2013-03-28 01:10:00,
2013-03-27 15:15:00,71.5,67.8,29.95,NNE,16,5.0,8.0,88,0.00,CLR,,0.09,WeatherDisplay:10.37,2013-03-28 01:15:00,
2013-03-27 15:20:00,71.8,68.1,29.95,North,356,6.0,8.0,88,0.00,CLR,,0.09,WeatherDisplay:10.37,2013-03-28 01:20:00,
2013-03-27 15:25:00,71.6,67.9,29.95,North,357,6.0,9.0,88,0.00,CLR,,0.09,WeatherDisplay:10.37,2013-03-28 01:25:00,
2013-03-27 15:30:00,72.0,68.2,29.95,North,9,6.0,8.0,88,0.00,CLR,,0.09,WeatherDisplay:10.37,2013-03-28 01:30:00,
2013-03-27 15:35:00,72.0,68.2,29.94,North,7,8.0,8.0,88,0.00,CLR,,0.09,WeatherDisplay:10.37,2013-03-28 01:35:00,
2013-03-27 15:40:00,72.0,68.2,29.94,ENE,68,8.0,8.1,88,0.00,CLR,,0.09,WeatherDisplay:10.37,2013-03-28 01:40:00,
2013-03-27 15:45:00,71.8,68.1,29.94,North,11,6.0,10.0,88,0.00,CLR,,0.09,WeatherDisplay:10.37,2013-03-28 01:45:00,
2013-03-27 15:50:00,72.3,68.5,29.93,NE,45,3.5,5.8,88,0.00,CLR,,0.09,WeatherDisplay:10.37,2013-03-28 01:50:00,
2013-03-27 15:55:00,72.1,68.4,29.93,North,11,5.0,7.0,88,0.00,CLR,,0.09,WeatherDisplay:10.37,2013-03-28 01:55:00,
2013-03-27 16:00:00,72.3,68.2,29.94,ENE,68,5.2,8.1,87,0.00,CLR,,0.09,WeatherDisplay:10.37,2013-03-28 02:00:00,
2013-03-27 16:05:00,72.1,68.0,29.94,North,9,7.0,9.0,87,0.00,CLR,,0.09,WeatherDisplay:10.37,2013-03-28 02:05:00,
2013-03-27 16:10:00,72.1,68.0,29.94,North,360,5.1,10.4,87,0.00,CLR,,0.09,WeatherDisplay:10.37,2013-03-28 02:10:00,
2013-03-27 16:15:00,72.4,68.3,29.94,NE,35,5.0,8.0,87,0.00,CLR,,0.09,WeatherDisplay:10.37,2013-03-28 02:15:00,
2013-03-27 16:20:00,72.5,68.4,29.94,NE,40,5.0,8.0,87,0.00,CLR,,0.09,WeatherDisplay:10.37,2013-03-28 02:20:00,
2013-03-27 16:25:00,72.5,68.4,29.94,NNE,25,5.0,10.0,87,0.00,CLR,,0.09,WeatherDisplay:10.37,2013-03-28 02:25:00,
2013-03-27 16:30:00,72.3,68.2,29.94,North,7,6.0,8.0,87,0.00,CLR,,0.09,WeatherDisplay:10.37,2013-03-28 02:30:00,
2013-03-27 16:35:00,72.4,67.6,29.94,NNE,18,7.0,8.0,85,0.00,CLR,,0.09,WeatherDisplay:10.37,2013-03-28 02:35:00,
2013-03-27 16:40:00,71.9,67.2,29.93,NE,40,8.0,11.0,85,0.00,CLR,,0.09,WeatherDisplay:10.37,2013-03-28 02:40:00,
2013-03-27 16:44:00,72.1,67.7,29.93,NE,45,5.4,8.1,86,0.00,CLR,,0.09,WeatherDisplay:10.37,2013-03-28 02:44:00,
2013-03-27 16:50:00,72.5,68.4,29.94,NNE,26,3.0,8.0,87,0.00,CLR,,0.09,WeatherDisplay:10.37,2013-03-28 02:50:00,
2013-03-27 16:55:00,72.5,68.4,29.94,NNE,29,5.0,9.0,87,0.00,CLR,,0.09,WeatherDisplay:10.37,2013-03-28 02:55:00,
2013-03-27 17:00:00,72.8,68.7,29.94,NNE,29,6.0,7.0,87,0.00,CLR,,0.09,WeatherDisplay:10.37,2013-03-28 03:00:00,
2013-03-27 17:05:00,72.3,68.2,29.94,ENE,68,6.5,9.9,87,0.00,CLR,,0.09,WeatherDisplay:10.37,2013-03-28 03:05:00,
2013-03-27 17:10:00,72.1,68.0,29.94,NNE,30,7.0,10.0,87,0.00,CLR,,0.09,WeatherDisplay:10.37,2013-03-28 03:10:00,
2013-03-27 17:15:00,72.3,68.2,29.94,ENE,68,7.1,9.4,87,0.00,CLR,,0.09,WeatherDisplay:10.37,2013-03-28 03:15:00,
2013-03-27 17:20:00,72.3,68.2,29.94,NNE,23,7.0,9.0,87,0.00,CLR,,0.09,WeatherDisplay:10.37,2013-03-28 03:20:00,
2013-03-27 17:25:00,72.3,68.2,29.94,North,360,6.5,8.1,87,0.00,CLR,,0.09,WeatherDisplay:10.37,2013-03-28 03:25:00,
2013-03-27 17:30:00,72.0,68.2,29.94,NNE,14,7.0,10.0,88,0.00,CLR,,0.09,WeatherDisplay:10.37,2013-03-28 03:30:00,
2013-03-27 17:35:00,72.0,68.6,29.95,NW,315,4.6,5.8,89,0.00,CLR,,0.09,WeatherDisplay:10.37,2013-03-28 03:35:00,
2013-03-27 17:40:00,72.0,68.6,29.95,NNE,15,5.0,7.0,89,0.00,CLR,,0.09,WeatherDisplay:10.37,2013-03-28 03:40:00,
2013-03-27 17:45:00,72.1,68.7,29.95,NNE,22,3.0,6.0,89,0.00,CLR,,0.09,WeatherDisplay:10.37,2013-03-28 03:45:00,
2013-03-27 17:50:00,72.3,68.9,29.96,North,2,3.0,6.0,89,0.00,CLR,,0.09,WeatherDisplay:10.37,2013-03-28 03:50:00,
2013-03-27 17:55:00,72.1,68.7,29.96,North,6,3.0,6.0,89,0.00,CLR,,0.09,WeatherDisplay:10.37,2013-03-28 03:55:00,
2013-03-27 18:00:00,72.1,68.7,29.96,NNE,12,3.0,6.0,89,0.00,CLR,,0.09,WeatherDisplay:10.37,2013-03-28 04:00:00,
2013-03-27 18:01:00,72.1,68.7,29.96,ENE,68,3.7,3.7,89,0.00,CLR,,0.09,WeatherDisplay:10.37,2013-03-28 04:01:00,
2013-03-27 18:06:00,72.1,68.7,29.96,NNE,22,2.4,3.2,89,0.00,CLR,,0.09,WeatherDisplay:10.37,2013-03-28 04:06:00,
2013-03-27 18:11:00,72.1,68.7,29.96,ESE,112,3.5,4.6,89,0.00,CLR,,0.09,WeatherDisplay:10.37,2013-03-28 04:11:00,
2013-03-27 18:16:00,72.1,68.7,29.96,East,90,4.5,5.8,89,0.00,CLR,,0.09,WeatherDisplay:10.37,2013-03-28 04:16:00,
2013-03-27 18:21:00,72.1,68.7,29.96,ESE,112,3.9,6.9,89,0.00,CLR,,0.09,WeatherDisplay:10.37,2013-03-28 04:21:00,
2013-03-27 18:26:00,72.0,68.6,29.97,ESE,112,3.8,3.8,89,0.00,CLR,,0.09,WeatherDisplay:10.37,2013-03-28 04:26:00,
2013-03-27 18:31:00,72.0,68.6,29.97,NNE,22,4.9,5.8,89,0.00,CLR,,0.09,WeatherDisplay:10.37,2013-03-28 04:31:00,
2013-03-27 18:36:00,71.6,68.2,29.96,NE,45,4.7,6.9,89,0.00,CLR,,0.09,WeatherDisplay:10.37,2013-03-28 04:36:00,
2013-03-27 18:41:00,71.6,68.2,29.96,NNE,22,5.2,5.8,89,0.00,CLR,,0.09,WeatherDisplay:10.37,2013-03-28 04:41:00,
2013-03-27 18:47:00,71.6,68.2,29.97,ESE,112,4.6,6.9,89,0.00,CLR,,0.09,WeatherDisplay:10.37,2013-03-28 04:47:00,
2013-03-27 18:52:00,71.4,68.0,29.97,ESE,112,5.9,8.1,89,0.00,CLR,,0.09,WeatherDisplay:10.37,2013-03-28 04:52:00,
2013-03-27 18:57:00,71.6,68.2,29.97,SE,135,3.3,4.7,89,0.00,CLR,,0.09,WeatherDisplay:10.37,2013-03-28 04:57:00,
2013-03-27 19:02:00,71.6,68.2,29.98,East,90,4.4,6.3,89,0.00,CLR,,0.09,WeatherDisplay:10.37,2013-03-28 05:02:00,
2013-03-27 19:07:00,71.6,68.2,29.98,ESE,112,3.7,4.6,89,0.00,CLR,,0.09,WeatherDisplay:10.37,2013-03-28 05:07:00,
2013-03-27 19:12:00,71.1,67.7,29.98,ESE,112,4.7,5.8,89,0.00,CLR,,0.09,WeatherDisplay:10.37,2013-03-28 05:12:00,
2013-03-27 19:17:00,71.1,67.7,29.98,ESE,112,4.6,6.9,89,0.00,CLR,,0.09,WeatherDisplay:10.37,2013-03-28 05:17:00,
2013-03-27 19:22:00,71.1,67.7,29.98,ESE,112,4.7,4.7,89,0.00,CLR,,0.09,WeatherDisplay:10.37,2013-03-28 05:22:00,
2013-03-27 19:27:00,70.7,67.3,29.98,ESE,112,2.9,5.8,89,0.00,CLR,,0.09,WeatherDisplay:10.37,2013-03-28 05:27:00,
2013-03-27 19:32:00,70.9,67.5,29.98,NNW,338,0.5,3.5,89,0.00,CLR,,0.09,WeatherDisplay:10.37,2013-03-28 05:32:00,
2013-03-27 19:37:00,70.9,67.5,29.99,SSE,158,1.5,1.7,89,0.00,CLR,,0.09,WeatherDisplay:10.37,2013-03-28 05:37:00,
2013-03-27 19:43:00,71.1,67.7,29.99,ESE,112,3.3,3.5,89,0.00,CLR,,0.09,WeatherDisplay:10.37,2013-03-28 05:43:00,
2013-03-27 19:48:00,71.1,67.7,29.99,East,90,2.2,2.3,89,0.00,CLR,,0.09,WeatherDisplay:10.37,2013-03-28 05:48:00,
2013-03-27 19:53:00,71.2,67.8,29.99,NNE,22,2.8,2.8,89,0.00,CLR,,0.09,WeatherDisplay:10.37,2013-03-28 05:53:00,
2013-03-27 19:58:00,71.2,67.8,29.99,NE,45,2.5,3.5,89,0.00,CLR,,0.09,WeatherDisplay:10.37,2013-03-28 05:58:00,
2013-03-27 20:03:00,71.2,67.8,30.00,North,360,1.8,2.3,89,0.00,CLR,,0.09,WeatherDisplay:10.37,2013-03-28 06:03:00,
2013-03-27 20:08:00,71.4,68.0,30.00,West,270,2.5,3.7,89,0.00,CLR,,0.09,WeatherDisplay:10.37,2013-03-28 06:08:00,
2013-03-27 20:13:00,71.1,67.7,29.99,ESE,112,4.6,5.8,89,0.00,CLR,,0.09,WeatherDisplay:10.37,2013-03-28 06:13:00,
2013-03-27 20:18:00,71.1,67.7,29.99,NE,45,3.2,3.5,89,0.00,CLR,,0.09,WeatherDisplay:10.37,2013-03-28 06:18:00,
2013-03-27 20:23:00,71.1,67.7,30.00,ESE,112,4.4,5.8,89,0.00,CLR,,0.09,WeatherDisplay:10.37,2013-03-28 06:23:00,
2013-03-27 20:28:00,71.1,67.7,30.00,East,90,3.8,4.6,89,0.00,CLR,,0.09,WeatherDisplay:10.37,2013-03-28 06:28:00,
2013-03-27 20:33:00,71.1,67.7,30.00,ENE,68,4.1,5.8,89,0.00,CLR,,0.09,WeatherDisplay:10.37,2013-03-28 06:33:00,
2013-03-27 20:39:00,71.1,67.7,30.01,ESE,112,2.6,4.6,89,0.00,CLR,,0.09,WeatherDisplay:10.37,2013-03-28 06:39:00,
2013-03-27 20:44:00,71.1,67.4,30.01,North,360,2.7,3.5,88,0.00,CLR,,0.09,WeatherDisplay:10.37,2013-03-28 06:44:00,
2013-03-27 20:49:00,70.9,67.2,30.01,ENE,68,0.8,2.3,88,0.00,CLR,,0.09,WeatherDisplay:10.37,2013-03-28 06:49:00,
2013-03-27 20:54:00,70.7,67.0,30.01,ESE,112,5.0,5.8,88,0.00,CLR,,0.09,WeatherDisplay:10.37,2013-03-28 06:54:00,
2013-03-27 20:59:00,70.7,67.0,30.02,SE,135,1.2,2.3,88,0.00,CLR,,0.09,WeatherDisplay:10.37,2013-03-28 06:59:00,
2013-03-27 21:04:00,70.7,67.0,30.02,NNE,22,1.5,2.2,88,0.00,CLR,,0.09,WeatherDisplay:10.37,2013-03-28 07:04:00,
2013-03-27 21:09:00,70.7,67.0,30.02,NE,45,0.2,1.1,88,0.00,CLR,,0.09,WeatherDisplay:10.37,2013-03-28 07:09:00,
2013-03-27 21:14:00,70.7,67.0,30.01,SSE,158,0.8,2.2,88,0.00,CLR,,0.10,WeatherDisplay:10.37,2013-03-28 07:14:00,
2013-03-27 21:19:00,71.1,67.7,30.01,East,90,1.8,2.3,89,0.02,RA,,0.11,WeatherDisplay:10.37,2013-03-28 07:19:00,
2013-03-27 21:24:00,71.1,68.0,30.01,NNW,338,1.3,2.3,90,0.02,RA,,0.11,WeatherDisplay:10.37,2013-03-28 07:24:00,
2013-03-27 21:29:00,71.2,68.1,30.01,ENE,68,5.8,6.9,90,0.02,CLR,,0.11,WeatherDisplay:10.37,2013-03-28 07:29:00,
2013-03-27 21:34:00,71.2,68.4,30.02,West,270,2.1,2.2,91,0.02,CLR,,0.11,WeatherDisplay:10.37,2013-03-28 07:34:00,
2013-03-27 21:39:00,71.2,68.4,30.02,NE,45,2.7,2.7,91,0.02,CLR,,0.11,WeatherDisplay:10.37,2013-03-28 07:39:00,
2013-03-27 21:44:00,71.2,68.4,30.02,NNW,338,2.7,2.7,91,0.02,CLR,,0.11,WeatherDisplay:10.37,2013-03-28 07:44:00,
2013-03-27 21:50:00,70.8,68.1,30.03,North,5,3.0,5.0,91,0.00,CLR,,0.11,WeatherDisplay:10.37,2013-03-28 07:50:00,
2013-03-27 21:55:00,70.6,67.8,30.03,NE,45,2.0,3.0,91,0.00,CLR,,0.11,WeatherDisplay:10.37,2013-03-28 07:55:00,
2013-03-27 22:00:00,70.5,67.7,30.03,NNW,336,2.0,4.0,91,0.00,CLR,,0.11,WeatherDisplay:10.37,2013-03-28 08:00:00,
2013-03-27 22:05:00,70.5,67.7,30.03,West,268,1.0,3.0,91,0.00,CLR,,0.11,WeatherDisplay:10.37,2013-03-28 08:05:00,
2013-03-27 22:10:00,70.7,67.9,30.03,WNW,303,1.0,3.0,91,0.00,CLR,,0.11,WeatherDisplay:10.37,2013-03-28 08:10:00,
2013-03-27 22:15:00,70.7,67.9,30.03,North,360,1.8,2.2,91,0.02,CLR,,0.11,WeatherDisplay:10.37,2013-03-28 08:15:00,
2013-03-27 22:20:00,70.7,67.9,30.03,WNW,289,0.0,3.0,91,0.00,CLR,,0.11,WeatherDisplay:10.37,2013-03-28 08:20:00,
2013-03-27 22:25:00,70.9,68.5,30.03,North,360,2.0,2.3,92,0.00,CLR,,0.11,WeatherDisplay:10.37,2013-03-28 08:25:00,
2013-03-27 22:30:00,70.9,68.5,30.03,NNW,328,2.0,2.0,92,0.00,CLR,,0.11,WeatherDisplay:10.37,2013-03-28 08:30:00,
2013-03-27 22:35:00,70.7,68.3,30.03,NW,313,2.0,4.0,92,0.00,CLR,,0.11,WeatherDisplay:10.37,2013-03-28 08:35:00,
2013-03-27 22:40:00,70.9,68.5,30.03,West,275,1.0,4.0,92,0.00,CLR,,0.11,WeatherDisplay:10.37,2013-03-28 08:40:00,
2013-03-27 22:45:00,70.9,68.5,30.03,West,270,2.0,2.0,92,0.00,CLR,,0.11,WeatherDisplay:10.37,2013-03-28 08:45:00,
2013-03-27 22:50:00,70.7,68.3,30.03,West,270,2.0,3.0,92,0.00,CLR,,0.11,WeatherDisplay:10.37,2013-03-28 08:50:00,
2013-03-27 22:55:00,70.9,68.5,30.03,West,270,3.0,5.0,92,0.00,CLR,,0.11,WeatherDisplay:10.37,2013-03-28 08:55:00,
2013-03-27 23:00:00,70.9,68.5,30.03,West,270,2.0,3.0,92,0.00,CLR,,0.11,WeatherDisplay:10.37,2013-03-28 09:00:00,
2013-03-27 23:05:00,71.1,68.7,30.03,WNW,295,2.0,2.0,92,0.00,CLR,,0.11,WeatherDisplay:10.37,2013-03-28 09:05:00,
2013-03-27 23:10:00,70.9,68.5,30.03,North,2,1.0,3.0,92,0.00,CLR,,0.11,WeatherDisplay:10.37,2013-03-28 09:10:00,
2013-03-27 23:15:00,71.1,68.7,30.03,NNW,327,3.0,4.0,92,0.00,CLR,,0.11,WeatherDisplay:10.37,2013-03-28 09:15:00,
2013-03-27 23:20:00,71.1,68.7,30.03,NW,310,3.0,4.0,92,0.00,CLR,,0.11,WeatherDisplay:10.37,2013-03-28 09:20:00,
2013-03-27 23:25:00,71.1,68.7,30.02,NW,311,3.0,3.0,92,0.00,CLR,,0.11,WeatherDisplay:10.37,2013-03-28 09:25:00,
2013-03-27 23:30:00,71.1,68.7,30.02,NNE,22,3.1,4.7,92,0.00,CLR,,0.11,WeatherDisplay:10.37,2013-03-28 09:30:00,
2013-03-27 23:35:00,71.2,68.8,30.02,NNE,22,2.0,12.0,92,0.00,RA,,0.12,WeatherDisplay:10.37,2013-03-28 09:35:00,
2013-03-27 23:40:00,71.2,68.8,30.02,NNE,22,2.7,4.2,92,0.01,RA,,0.12,WeatherDisplay:10.37,2013-03-28 09:40:00,
2013-03-27 23:45:00,71.1,68.7,30.02,NNW,344,2.0,5.0,92,0.00,CLR,,0.12,WeatherDisplay:10.37,2013-03-28 09:45:00,
2013-03-27 23:50:00,71.1,68.7,30.03,North,360,1.0,3.7,92,0.01,CLR,,0.12,WeatherDisplay:10.37,2013-03-28 09:50:00,
2013-03-27 23:55:00,71.1,68.7,30.03,North,351,2.0,4.0,92,0.00,CLR,,0.12,WeatherDisplay:10.37,2013-03-28 09:55:00,